sensor_id;sensor_type;location;lat;lon;timestamp;pressure;altitude;pressure_sealevel;temperature
20736;BMP180;10528;52.124;5.196;2022-11-09T00:00:07;100316.00;;;19.10
20736;BMP180;10528;52.124;5.196;2022-11-09T00:02:35;100317.00;;;19.10
20736;BMP180;10528;52.124;5.196;2022-11-09T00:05:08;100318.00;;;19.10
20736;BMP180;10528;52.124;5.196;2022-11-09T00:07:35;100318.00;;;19.10
20736;BMP180;10528;52.124;5.196;2022-11-09T00:10:02;100311.00;;;19.10
20736;BMP180;10528;52.124;5.196;2022-11-09T00:12:29;100315.00;;;19.10
20736;BMP180;10528;52.124;5.196;2022-11-09T00:14:56;100319.00;;;19.20
20736;BMP180;10528;52.124;5.196;2022-11-09T00:17:23;100320.00;;;19.20
20736;BMP180;10528;52.124;5.196;2022-11-09T00:19:50;100334.00;;;19.20
20736;BMP180;10528;52.124;5.196;2022-11-09T00:22:16;100318.00;;;19.20
20736;BMP180;10528;52.124;5.196;2022-11-09T00:24:43;100326.00;;;19.30
20736;BMP180;10528;52.124;5.196;2022-11-09T00:27:10;100330.00;;;19.30
20736;BMP180;10528;52.124;5.196;2022-11-09T00:29:43;100347.00;;;19.30
20736;BMP180;10528;52.124;5.196;2022-11-09T00:32:09;100341.00;;;19.30
20736;BMP180;10528;52.124;5.196;2022-11-09T00:34:36;100342.00;;;19.30
20736;BMP180;10528;52.124;5.196;2022-11-09T00:37:04;100335.00;;;19.40
20736;BMP180;10528;52.124;5.196;2022-11-09T00:39:31;100331.00;;;19.40
20736;BMP180;10528;52.124;5.196;2022-11-09T00:41:58;100334.00;;;19.40
20736;BMP180;10528;52.124;5.196;2022-11-09T00:44:24;100335.00;;;19.40
20736;BMP180;10528;52.124;5.196;2022-11-09T00:46:51;100326.00;;;19.40
20736;BMP180;10528;52.124;5.196;2022-11-09T00:49:18;100334.00;;;19.40
20736;BMP180;10528;52.124;5.196;2022-11-09T00:51:45;100313.00;;;19.30
20736;BMP180;10528;52.124;5.196;2022-11-09T00:54:12;100333.00;;;19.30
20736;BMP180;10528;52.124;5.196;2022-11-09T00:56:38;100326.00;;;19.30
20736;BMP180;10528;52.124;5.196;2022-11-09T00:59:05;100324.00;;;19.30
20736;BMP180;10528;52.124;5.196;2022-11-09T01:01:32;100320.00;;;19.30
20736;BMP180;10528;52.124;5.196;2022-11-09T01:03:59;100315.00;;;19.30
20736;BMP180;10528;52.124;5.196;2022-11-09T01:06:26;100316.00;;;19.20
20736;BMP180;10528;52.124;5.196;2022-11-09T01:08:53;100317.00;;;19.20
20736;BMP180;10528;52.124;5.196;2022-11-09T01:11:21;100320.00;;;19.20
20736;BMP180;10528;52.124;5.196;2022-11-09T01:13:51;100309.00;;;19.20
20736;BMP180;10528;52.124;5.196;2022-11-09T01:16:21;100322.00;;;19.10
20736;BMP180;10528;52.124;5.196;2022-11-09T01:18:55;100318.00;;;19.10
20736;BMP180;10528;52.124;5.196;2022-11-09T01:21:25;100324.00;;;19.10
20736;BMP180;10528;52.124;5.196;2022-11-09T01:23:53;100316.00;;;19.10
20736;BMP180;10528;52.124;5.196;2022-11-09T01:26:21;100324.00;;;19.10
20736;BMP180;10528;52.124;5.196;2022-11-09T01:28:50;100334.00;;;19.10
20736;BMP180;10528;52.124;5.196;2022-11-09T01:31:19;100335.00;;;19.00
20736;BMP180;10528;52.124;5.196;2022-11-09T01:33:47;100331.00;;;19.00
20736;BMP180;10528;52.124;5.196;2022-11-09T01:36:19;100326.00;;;19.00
20736;BMP180;10528;52.124;5.196;2022-11-09T01:38:47;100318.00;;;19.00
20736;BMP180;10528;52.124;5.196;2022-11-09T01:41:18;100316.00;;;19.00
20736;BMP180;10528;52.124;5.196;2022-11-09T01:44:07;100332.00;;;19.00
20736;BMP180;10528;52.124;5.196;2022-11-09T01:46:45;100324.00;;;19.00
20736;BMP180;10528;52.124;5.196;2022-11-09T01:49:37;100344.00;;;18.90
20736;BMP180;10528;52.124;5.196;2022-11-09T01:52:14;100338.00;;;18.90
20736;BMP180;10528;52.124;5.196;2022-11-09T01:54:48;100332.00;;;18.90
20736;BMP180;10528;52.124;5.196;2022-11-09T01:57:27;100341.00;;;18.90
20736;BMP180;10528;52.124;5.196;2022-11-09T02:00:00;100340.00;;;19.00
20736;BMP180;10528;52.124;5.196;2022-11-09T02:02:44;100341.00;;;19.00
20736;BMP180;10528;52.124;5.196;2022-11-09T02:05:18;100336.00;;;19.00
20736;BMP180;10528;52.124;5.196;2022-11-09T02:07:49;100334.00;;;19.00
20736;BMP180;10528;52.124;5.196;2022-11-09T02:10:36;100325.00;;;19.00
20736;BMP180;10528;52.124;5.196;2022-11-09T02:13:06;100315.00;;;19.00
20736;BMP180;10528;52.124;5.196;2022-11-09T02:15:36;100319.00;;;19.00
20736;BMP180;10528;52.124;5.196;2022-11-09T02:18:11;100334.00;;;19.00
20736;BMP180;10528;52.124;5.196;2022-11-09T02:21:04;100331.00;;;19.00
20736;BMP180;10528;52.124;5.196;2022-11-09T02:23:31;100342.00;;;19.00
20736;BMP180;10528;52.124;5.196;2022-11-09T02:26:08;100325.00;;;19.00
20736;BMP180;10528;52.124;5.196;2022-11-09T02:28:39;100338.00;;;19.00
20736;BMP180;10528;52.124;5.196;2022-11-09T02:31:11;100334.00;;;19.00
20736;BMP180;10528;52.124;5.196;2022-11-09T02:33:52;100337.00;;;19.00
20736;BMP180;10528;52.124;5.196;2022-11-09T02:36:24;100342.00;;;19.00
20736;BMP180;10528;52.124;5.196;2022-11-09T02:38:53;100349.00;;;19.00
20736;BMP180;10528;52.124;5.196;2022-11-09T02:41:23;100345.00;;;19.00
20736;BMP180;10528;52.124;5.196;2022-11-09T02:43:52;100345.00;;;19.00
20736;BMP180;10528;52.124;5.196;2022-11-09T02:46:31;100353.00;;;19.00
20736;BMP180;10528;52.124;5.196;2022-11-09T02:49:00;100347.00;;;19.00
20736;BMP180;10528;52.124;5.196;2022-11-09T02:51:28;100345.00;;;19.00
20736;BMP180;10528;52.124;5.196;2022-11-09T02:53:55;100343.00;;;19.00
20736;BMP180;10528;52.124;5.196;2022-11-09T02:56:22;100347.00;;;19.00
20736;BMP180;10528;52.124;5.196;2022-11-09T02:58:49;100342.00;;;19.00
20736;BMP180;10528;52.124;5.196;2022-11-09T03:01:17;100341.00;;;19.00
20736;BMP180;10528;52.124;5.196;2022-11-09T03:03:44;100350.00;;;19.00
20736;BMP180;10528;52.124;5.196;2022-11-09T03:06:12;100351.00;;;19.00
20736;BMP180;10528;52.124;5.196;2022-11-09T03:08:40;100346.00;;;19.00
20736;BMP180;10528;52.124;5.196;2022-11-09T03:11:07;100347.00;;;19.00
20736;BMP180;10528;52.124;5.196;2022-11-09T03:13:34;100346.00;;;19.00
20736;BMP180;10528;52.124;5.196;2022-11-09T03:16:07;100343.00;;;18.90
20736;BMP180;10528;52.124;5.196;2022-11-09T03:18:38;100344.00;;;18.90
20736;BMP180;10528;52.124;5.196;2022-11-09T03:21:06;100341.00;;;18.90
20736;BMP180;10528;52.124;5.196;2022-11-09T03:23:33;100334.00;;;18.80
20736;BMP180;10528;52.124;5.196;2022-11-09T03:26:01;100344.00;;;18.80
20736;BMP180;10528;52.124;5.196;2022-11-09T03:28:28;100347.00;;;18.80
20736;BMP180;10528;52.124;5.196;2022-11-09T03:30:56;100343.00;;;18.80
20736;BMP180;10528;52.124;5.196;2022-11-09T03:33:23;100340.00;;;18.80
20736;BMP180;10528;52.124;5.196;2022-11-09T03:35:50;100341.00;;;18.70
20736;BMP180;10528;52.124;5.196;2022-11-09T03:38:18;100341.00;;;18.70
20736;BMP180;10528;52.124;5.196;2022-11-09T03:40:46;100353.00;;;18.70
20736;BMP180;10528;52.124;5.196;2022-11-09T03:43:12;100361.00;;;18.70
20736;BMP180;10528;52.124;5.196;2022-11-09T03:45:39;100356.00;;;18.70
20736;BMP180;10528;52.124;5.196;2022-11-09T03:48:07;100368.00;;;18.60
20736;BMP180;10528;52.124;5.196;2022-11-09T03:50:34;100381.00;;;18.60
20736;BMP180;10528;52.124;5.196;2022-11-09T03:53:01;100380.00;;;18.60
20736;BMP180;10528;52.124;5.196;2022-11-09T03:55:28;100382.00;;;18.60
20736;BMP180;10528;52.124;5.196;2022-11-09T03:57:55;100389.00;;;18.60
20736;BMP180;10528;52.124;5.196;2022-11-09T04:00:22;100387.00;;;18.60
20736;BMP180;10528;52.124;5.196;2022-11-09T04:02:49;100393.00;;;18.60
20736;BMP180;10528;52.124;5.196;2022-11-09T04:05:17;100398.00;;;18.60
20736;BMP180;10528;52.124;5.196;2022-11-09T04:07:50;100399.00;;;18.50
20736;BMP180;10528;52.124;5.196;2022-11-09T04:10:19;100404.00;;;18.60
20736;BMP180;10528;52.124;5.196;2022-11-09T04:12:46;100395.00;;;18.60
20736;BMP180;10528;52.124;5.196;2022-11-09T04:15:15;100405.00;;;18.60
20736;BMP180;10528;52.124;5.196;2022-11-09T04:17:42;100395.00;;;18.60
20736;BMP180;10528;52.124;5.196;2022-11-09T04:20:11;100401.00;;;18.50
20736;BMP180;10528;52.124;5.196;2022-11-09T04:22:37;100394.00;;;18.50
20736;BMP180;10528;52.124;5.196;2022-11-09T04:25:05;100407.00;;;18.50
20736;BMP180;10528;52.124;5.196;2022-11-09T04:27:32;100411.00;;;18.50
20736;BMP180;10528;52.124;5.196;2022-11-09T04:29:58;100414.00;;;18.50
20736;BMP180;10528;52.124;5.196;2022-11-09T04:32:25;100419.00;;;18.50
20736;BMP180;10528;52.124;5.196;2022-11-09T04:34:52;100412.00;;;18.50
20736;BMP180;10528;52.124;5.196;2022-11-09T04:37:19;100418.00;;;18.50
20736;BMP180;10528;52.124;5.196;2022-11-09T04:39:45;100421.00;;;18.50
20736;BMP180;10528;52.124;5.196;2022-11-09T04:42:12;100428.00;;;18.50
20736;BMP180;10528;52.124;5.196;2022-11-09T04:44:39;100421.00;;;18.50
20736;BMP180;10528;52.124;5.196;2022-11-09T04:47:06;100424.00;;;18.50
20736;BMP180;10528;52.124;5.196;2022-11-09T04:49:32;100419.00;;;18.40
20736;BMP180;10528;52.124;5.196;2022-11-09T04:51:59;100430.00;;;18.40
20736;BMP180;10528;52.124;5.196;2022-11-09T04:54:26;100433.00;;;18.40
20736;BMP180;10528;52.124;5.196;2022-11-09T04:56:53;100416.00;;;18.40
20736;BMP180;10528;52.124;5.196;2022-11-09T04:59:20;100432.00;;;18.40
20736;BMP180;10528;52.124;5.196;2022-11-09T05:01:47;100428.00;;;18.40
20736;BMP180;10528;52.124;5.196;2022-11-09T05:04:14;100417.00;;;18.40
20736;BMP180;10528;52.124;5.196;2022-11-09T05:06:40;100414.00;;;18.40
20736;BMP180;10528;52.124;5.196;2022-11-09T05:09:07;100415.00;;;18.40
20736;BMP180;10528;52.124;5.196;2022-11-09T05:11:35;100422.00;;;18.40
20736;BMP180;10528;52.124;5.196;2022-11-09T05:14:03;100419.00;;;18.30
20736;BMP180;10528;52.124;5.196;2022-11-09T05:16:30;100411.00;;;18.30
20736;BMP180;10528;52.124;5.196;2022-11-09T05:18:57;100417.00;;;18.30
20736;BMP180;10528;52.124;5.196;2022-11-09T05:21:24;100422.00;;;18.30
20736;BMP180;10528;52.124;5.196;2022-11-09T05:23:51;100413.00;;;18.30
20736;BMP180;10528;52.124;5.196;2022-11-09T05:26:40;100433.00;;;18.30
20736;BMP180;10528;52.124;5.196;2022-11-09T05:29:10;100423.00;;;18.30
20736;BMP180;10528;52.124;5.196;2022-11-09T05:31:39;100430.00;;;18.30
20736;BMP180;10528;52.124;5.196;2022-11-09T05:34:06;100440.00;;;18.20
20736;BMP180;10528;52.124;5.196;2022-11-09T05:36:33;100431.00;;;18.20
20736;BMP180;10528;52.124;5.196;2022-11-09T05:39:00;100433.00;;;18.20
20736;BMP180;10528;52.124;5.196;2022-11-09T05:41:27;100424.00;;;18.20
20736;BMP180;10528;52.124;5.196;2022-11-09T05:43:54;100430.00;;;18.20
20736;BMP180;10528;52.124;5.196;2022-11-09T05:46:21;100425.00;;;18.20
20736;BMP180;10528;52.124;5.196;2022-11-09T05:48:48;100417.00;;;18.20
20736;BMP180;10528;52.124;5.196;2022-11-09T05:51:15;100431.00;;;18.20
20736;BMP180;10528;52.124;5.196;2022-11-09T05:53:41;100428.00;;;18.20
20736;BMP180;10528;52.124;5.196;2022-11-09T05:56:13;100432.00;;;18.20
20736;BMP180;10528;52.124;5.196;2022-11-09T05:58:41;100431.00;;;18.20
20736;BMP180;10528;52.124;5.196;2022-11-09T06:01:14;100434.00;;;18.20
20736;BMP180;10528;52.124;5.196;2022-11-09T06:03:42;100437.00;;;18.20
20736;BMP180;10528;52.124;5.196;2022-11-09T06:06:13;100422.00;;;18.20
20736;BMP180;10528;52.124;5.196;2022-11-09T06:08:41;100432.00;;;18.20
20736;BMP180;10528;52.124;5.196;2022-11-09T06:11:11;100433.00;;;18.20
20736;BMP180;10528;52.124;5.196;2022-11-09T06:13:42;100430.00;;;18.20
20736;BMP180;10528;52.124;5.196;2022-11-09T06:16:09;100442.00;;;18.20
20736;BMP180;10528;52.124;5.196;2022-11-09T06:18:36;100452.00;;;18.20
20736;BMP180;10528;52.124;5.196;2022-11-09T06:21:04;100458.00;;;18.10
20736;BMP180;10528;52.124;5.196;2022-11-09T06:23:31;100455.00;;;18.10
20736;BMP180;10528;52.124;5.196;2022-11-09T06:26:06;100454.00;;;18.10
20736;BMP180;10528;52.124;5.196;2022-11-09T06:28:36;100450.00;;;18.10
20736;BMP180;10528;52.124;5.196;2022-11-09T06:31:09;100460.00;;;18.10
20736;BMP180;10528;52.124;5.196;2022-11-09T06:33:36;100454.00;;;18.10
20736;BMP180;10528;52.124;5.196;2022-11-09T06:36:03;100461.00;;;18.10
20736;BMP180;10528;52.124;5.196;2022-11-09T06:38:30;100453.00;;;18.10
20736;BMP180;10528;52.124;5.196;2022-11-09T06:40:59;100464.00;;;18.10
20736;BMP180;10528;52.124;5.196;2022-11-09T06:43:27;100466.00;;;18.10
20736;BMP180;10528;52.124;5.196;2022-11-09T06:45:54;100461.00;;;18.10
20736;BMP180;10528;52.124;5.196;2022-11-09T06:48:22;100465.00;;;18.10
20736;BMP180;10528;52.124;5.196;2022-11-09T06:50:49;100455.00;;;18.10
20736;BMP180;10528;52.124;5.196;2022-11-09T06:53:16;100467.00;;;18.10
20736;BMP180;10528;52.124;5.196;2022-11-09T06:55:44;100466.00;;;18.10
20736;BMP180;10528;52.124;5.196;2022-11-09T06:58:17;100473.00;;;18.10
20736;BMP180;10528;52.124;5.196;2022-11-09T07:00:45;100476.00;;;18.10
20736;BMP180;10528;52.124;5.196;2022-11-09T07:03:18;100467.00;;;18.10
20736;BMP180;10528;52.124;5.196;2022-11-09T07:05:47;100482.00;;;18.10
20736;BMP180;10528;52.124;5.196;2022-11-09T07:08:16;100484.00;;;18.10
20736;BMP180;10528;52.124;5.196;2022-11-09T07:10:43;100481.00;;;18.20
20736;BMP180;10528;52.124;5.196;2022-11-09T07:13:11;100483.00;;;18.20
20736;BMP180;10528;52.124;5.196;2022-11-09T07:15:38;100468.00;;;18.20
20736;BMP180;10528;52.124;5.196;2022-11-09T07:18:09;100483.00;;;18.20
20736;BMP180;10528;52.124;5.196;2022-11-09T07:20:36;100474.00;;;18.20
20736;BMP180;10528;52.124;5.196;2022-11-09T07:23:03;100476.00;;;18.30
20736;BMP180;10528;52.124;5.196;2022-11-09T07:25:30;100476.00;;;18.30
20736;BMP180;10528;52.124;5.196;2022-11-09T07:28:06;100476.00;;;18.30
20736;BMP180;10528;52.124;5.196;2022-11-09T07:30:34;100489.00;;;18.40
20736;BMP180;10528;52.124;5.196;2022-11-09T07:33:03;100476.00;;;18.40
20736;BMP180;10528;52.124;5.196;2022-11-09T07:35:36;100491.00;;;18.40
20736;BMP180;10528;52.124;5.196;2022-11-09T07:38:03;100485.00;;;18.40
20736;BMP180;10528;52.124;5.196;2022-11-09T07:40:30;100486.00;;;18.40
20736;BMP180;10528;52.124;5.196;2022-11-09T07:43:02;100499.00;;;18.40
20736;BMP180;10528;52.124;5.196;2022-11-09T07:45:32;100492.00;;;18.40
20736;BMP180;10528;52.124;5.196;2022-11-09T07:48:06;100494.00;;;18.40
20736;BMP180;10528;52.124;5.196;2022-11-09T07:50:35;100504.00;;;18.40
20736;BMP180;10528;52.124;5.196;2022-11-09T07:53:02;100503.00;;;18.40
20736;BMP180;10528;52.124;5.196;2022-11-09T07:55:31;100502.00;;;18.40
20736;BMP180;10528;52.124;5.196;2022-11-09T07:58:02;100512.00;;;18.40
20736;BMP180;10528;52.124;5.196;2022-11-09T08:00:31;100509.00;;;18.40
20736;BMP180;10528;52.124;5.196;2022-11-09T08:02:59;100509.00;;;18.40
20736;BMP180;10528;52.124;5.196;2022-11-09T08:05:25;100517.00;;;18.40
20736;BMP180;10528;52.124;5.196;2022-11-09T08:07:58;100513.00;;;18.40
20736;BMP180;10528;52.124;5.196;2022-11-09T08:10:28;100517.00;;;18.40
20736;BMP180;10528;52.124;5.196;2022-11-09T08:13:05;100512.00;;;18.50
20736;BMP180;10528;52.124;5.196;2022-11-09T08:15:34;100520.00;;;18.50
20736;BMP180;10528;52.124;5.196;2022-11-09T08:18:09;100517.00;;;18.40
20736;BMP180;10528;52.124;5.196;2022-11-09T08:20:37;100527.00;;;18.50
20736;BMP180;10528;52.124;5.196;2022-11-09T08:23:05;100526.00;;;18.50
20736;BMP180;10528;52.124;5.196;2022-11-09T08:25:35;100509.00;;;18.50
20736;BMP180;10528;52.124;5.196;2022-11-09T08:28:02;100521.00;;;18.50
20736;BMP180;10528;52.124;5.196;2022-11-09T08:30:29;100519.00;;;18.50
20736;BMP180;10528;52.124;5.196;2022-11-09T08:32:59;100536.00;;;18.50
20736;BMP180;10528;52.124;5.196;2022-11-09T08:35:27;100517.00;;;18.50
20736;BMP180;10528;52.124;5.196;2022-11-09T08:37:54;100527.00;;;18.50
20736;BMP180;10528;52.124;5.196;2022-11-09T08:40:24;100523.00;;;18.50
20736;BMP180;10528;52.124;5.196;2022-11-09T08:42:52;100528.00;;;18.60
20736;BMP180;10528;52.124;5.196;2022-11-09T08:45:19;100536.00;;;18.60
20736;BMP180;10528;52.124;5.196;2022-11-09T08:47:46;100535.00;;;18.60
20736;BMP180;10528;52.124;5.196;2022-11-09T08:50:14;100530.00;;;18.60
20736;BMP180;10528;52.124;5.196;2022-11-09T08:52:41;100528.00;;;18.70
20736;BMP180;10528;52.124;5.196;2022-11-09T08:55:09;100538.00;;;18.70
20736;BMP180;10528;52.124;5.196;2022-11-09T08:57:36;100538.00;;;18.70
20736;BMP180;10528;52.124;5.196;2022-11-09T09:00:04;100536.00;;;18.70
20736;BMP180;10528;52.124;5.196;2022-11-09T09:02:31;100535.00;;;18.80
20736;BMP180;10528;52.124;5.196;2022-11-09T09:04:58;100546.00;;;18.90
20736;BMP180;10528;52.124;5.196;2022-11-09T09:07:25;100543.00;;;18.90
20736;BMP180;10528;52.124;5.196;2022-11-09T09:09:52;100547.00;;;18.90
20736;BMP180;10528;52.124;5.196;2022-11-09T09:12:19;100543.00;;;19.00
20736;BMP180;10528;52.124;5.196;2022-11-09T09:14:45;100546.00;;;19.00
20736;BMP180;10528;52.124;5.196;2022-11-09T09:17:12;100559.00;;;19.00
20736;BMP180;10528;52.124;5.196;2022-11-09T09:19:39;100555.00;;;19.10
20736;BMP180;10528;52.124;5.196;2022-11-09T09:22:11;100546.00;;;18.90
20736;BMP180;10528;52.124;5.196;2022-11-09T09:24:38;100557.00;;;19.10
20736;BMP180;10528;52.124;5.196;2022-11-09T09:27:05;100551.00;;;19.10
20736;BMP180;10528;52.124;5.196;2022-11-09T09:29:31;100546.00;;;19.10
20736;BMP180;10528;52.124;5.196;2022-11-09T09:31:58;100539.00;;;19.20
20736;BMP180;10528;52.124;5.196;2022-11-09T09:34:25;100555.00;;;19.20
20736;BMP180;10528;52.124;5.196;2022-11-09T09:36:52;100554.00;;;19.20
20736;BMP180;10528;52.124;5.196;2022-11-09T09:39:19;100553.00;;;19.20
20736;BMP180;10528;52.124;5.196;2022-11-09T09:42:00;100558.00;;;19.30
20736;BMP180;10528;52.124;5.196;2022-11-09T09:45:04;100560.00;;;19.30
20736;BMP180;10528;52.124;5.196;2022-11-09T09:47:43;100552.00;;;19.30
20736;BMP180;10528;52.124;5.196;2022-11-09T09:50:44;100563.00;;;19.30
20736;BMP180;10528;52.124;5.196;2022-11-09T09:53:32;100570.00;;;19.40
20736;BMP180;10528;52.124;5.196;2022-11-09T09:56:20;100570.00;;;19.40
20736;BMP180;10528;52.124;5.196;2022-11-09T09:58:57;100583.00;;;19.40
20736;BMP180;10528;52.124;5.196;2022-11-09T10:01:36;100579.00;;;19.40
20736;BMP180;10528;52.124;5.196;2022-11-09T10:04:23;100583.00;;;19.40
20736;BMP180;10528;52.124;5.196;2022-11-09T10:10:15;100596.00;;;19.40
20736;BMP180;10528;52.124;5.196;2022-11-09T10:22:36;100617.00;;;19.40
20736;BMP180;10528;52.124;5.196;2022-11-09T10:25:26;100613.00;;;19.40
20736;BMP180;10528;52.124;5.196;2022-11-09T10:28:15;100608.00;;;19.30
20736;BMP180;10528;52.124;5.196;2022-11-09T10:30:43;100607.00;;;19.30
20736;BMP180;10528;52.124;5.196;2022-11-09T10:35:54;100608.00;;;19.50
20736;BMP180;10528;52.124;5.196;2022-11-09T10:38:39;100602.00;;;19.60
20736;BMP180;10528;52.124;5.196;2022-11-09T10:41:42;100612.00;;;19.60
20736;BMP180;10528;52.124;5.196;2022-11-09T10:44:31;100609.00;;;19.70
20736;BMP180;10528;52.124;5.196;2022-11-09T10:47:17;100619.00;;;19.70
20736;BMP180;10528;52.124;5.196;2022-11-09T10:53:25;100611.00;;;19.80
20736;BMP180;10528;52.124;5.196;2022-11-09T10:56:16;100600.00;;;19.80
20736;BMP180;10528;52.124;5.196;2022-11-09T11:02:42;100595.00;;;19.80
20736;BMP180;10528;52.124;5.196;2022-11-09T11:05:29;100596.00;;;19.90
20736;BMP180;10528;52.124;5.196;2022-11-09T11:12:14;100597.00;;;19.90
20736;BMP180;10528;52.124;5.196;2022-11-09T11:15:00;100615.00;;;19.90
20736;BMP180;10528;52.124;5.196;2022-11-09T11:17:45;100592.00;;;19.90
20736;BMP180;10528;52.124;5.196;2022-11-09T11:20:36;100599.00;;;19.90
20736;BMP180;10528;52.124;5.196;2022-11-09T11:23:24;100586.00;;;19.90
20736;BMP180;10528;52.124;5.196;2022-11-09T11:26:29;100583.00;;;20.00
20736;BMP180;10528;52.124;5.196;2022-11-09T11:32:08;100594.00;;;20.00
20736;BMP180;10528;52.124;5.196;2022-11-09T11:34:54;100595.00;;;19.90
20736;BMP180;10528;52.124;5.196;2022-11-09T11:47:36;100609.00;;;19.80
20736;BMP180;10528;52.124;5.196;2022-11-09T12:00:16;100637.00;;;19.50
20736;BMP180;10528;52.124;5.196;2022-11-09T12:03:17;100617.00;;;19.50
20736;BMP180;10528;52.124;5.196;2022-11-09T12:06:52;100624.00;;;19.50
20736;BMP180;10528;52.124;5.196;2022-11-09T12:12:49;100635.00;;;19.50
20736;BMP180;10528;52.124;5.196;2022-11-09T12:16:07;100634.00;;;19.50
20736;BMP180;10528;52.124;5.196;2022-11-09T12:19:28;100630.00;;;19.50
20736;BMP180;10528;52.124;5.196;2022-11-09T12:23:16;100631.00;;;19.50
20736;BMP180;10528;52.124;5.196;2022-11-09T12:29:24;100614.00;;;19.40
20736;BMP180;10528;52.124;5.196;2022-11-09T12:35:57;100626.00;;;19.40
20736;BMP180;10528;52.124;5.196;2022-11-09T12:39:05;100616.00;;;19.50
20736;BMP180;10528;52.124;5.196;2022-11-09T12:41:59;100622.00;;;19.50
20736;BMP180;10528;52.124;5.196;2022-11-09T12:47:43;100626.00;;;19.60
20736;BMP180;10528;52.124;5.196;2022-11-09T12:50:30;100634.00;;;19.50
20736;BMP180;10528;52.124;5.196;2022-11-09T12:53:18;100634.00;;;19.50
20736;BMP180;10528;52.124;5.196;2022-11-09T12:56:26;100624.00;;;19.60
20736;BMP180;10528;52.124;5.196;2022-11-09T13:05:36;100637.00;;;19.50
20736;BMP180;10528;52.124;5.196;2022-11-09T13:08:29;100644.00;;;19.60
20736;BMP180;10528;52.124;5.196;2022-11-09T13:11:41;100655.00;;;19.60
20736;BMP180;10528;52.124;5.196;2022-11-09T13:14:34;100662.00;;;19.60
20736;BMP180;10528;52.124;5.196;2022-11-09T13:23:39;100669.00;;;19.70
20736;BMP180;10528;52.124;5.196;2022-11-09T13:32:30;100659.00;;;19.80
20736;BMP180;10528;52.124;5.196;2022-11-09T13:38:29;100677.00;;;19.70
20736;BMP180;10528;52.124;5.196;2022-11-09T13:44:25;100668.00;;;19.70
20736;BMP180;10528;52.124;5.196;2022-11-09T13:47:25;100692.00;;;19.70
20736;BMP180;10528;52.124;5.196;2022-11-09T13:50:21;100689.00;;;19.80
20736;BMP180;10528;52.124;5.196;2022-11-09T13:56:36;100693.00;;;19.70
20736;BMP180;10528;52.124;5.196;2022-11-09T13:59:46;100692.00;;;19.70
20736;BMP180;10528;52.124;5.196;2022-11-09T14:02:32;100696.00;;;19.70
20736;BMP180;10528;52.124;5.196;2022-11-09T14:05:30;100695.00;;;19.60
20736;BMP180;10528;52.124;5.196;2022-11-09T14:08:27;100693.00;;;19.70
20736;BMP180;10528;52.124;5.196;2022-11-09T14:11:51;100706.00;;;19.70
20736;BMP180;10528;52.124;5.196;2022-11-09T14:15:19;100712.00;;;19.60
20736;BMP180;10528;52.124;5.196;2022-11-09T14:21:46;100739.00;;;19.60
20736;BMP180;10528;52.124;5.196;2022-11-09T14:24:36;100727.00;;;19.50
20736;BMP180;10528;52.124;5.196;2022-11-09T14:27:22;100737.00;;;19.60
20736;BMP180;10528;52.124;5.196;2022-11-09T14:30:21;100735.00;;;19.70
20736;BMP180;10528;52.124;5.196;2022-11-09T14:33:24;100733.00;;;19.70
20736;BMP180;10528;52.124;5.196;2022-11-09T14:36:11;100747.00;;;19.70
20736;BMP180;10528;52.124;5.196;2022-11-09T14:39:02;100744.00;;;19.70
20736;BMP180;10528;52.124;5.196;2022-11-09T14:41:49;100752.00;;;19.70
20736;BMP180;10528;52.124;5.196;2022-11-09T14:44:41;100751.00;;;19.70
20736;BMP180;10528;52.124;5.196;2022-11-09T14:47:33;100752.00;;;19.70
20736;BMP180;10528;52.124;5.196;2022-11-09T14:50:27;100754.00;;;19.60
20736;BMP180;10528;52.124;5.196;2022-11-09T14:53:20;100765.00;;;19.60
20736;BMP180;10528;52.124;5.196;2022-11-09T14:56:13;100773.00;;;19.60
20736;BMP180;10528;52.124;5.196;2022-11-09T14:59:03;100772.00;;;19.60
20736;BMP180;10528;52.124;5.196;2022-11-09T15:02:07;100780.00;;;19.50
20736;BMP180;10528;52.124;5.196;2022-11-09T15:05:02;100792.00;;;19.50
20736;BMP180;10528;52.124;5.196;2022-11-09T15:07:48;100791.00;;;19.40
20736;BMP180;10528;52.124;5.196;2022-11-09T15:10:34;100791.00;;;19.40
20736;BMP180;10528;52.124;5.196;2022-11-09T15:13:34;100797.00;;;19.40
20736;BMP180;10528;52.124;5.196;2022-11-09T15:16:26;100799.00;;;19.30
20736;BMP180;10528;52.124;5.196;2022-11-09T15:19:36;100800.00;;;19.30
20736;BMP180;10528;52.124;5.196;2022-11-09T15:28:31;100800.00;;;19.20
20736;BMP180;10528;52.124;5.196;2022-11-09T15:31:19;100814.00;;;19.20
20736;BMP180;10528;52.124;5.196;2022-11-09T15:34:25;100816.00;;;19.20
20736;BMP180;10528;52.124;5.196;2022-11-09T15:37:26;100807.00;;;19.20
20736;BMP180;10528;52.124;5.196;2022-11-09T15:40:19;100818.00;;;19.10
20736;BMP180;10528;52.124;5.196;2022-11-09T15:43:04;100839.00;;;19.10
20736;BMP180;10528;52.124;5.196;2022-11-09T15:45:50;100825.00;;;19.00
20736;BMP180;10528;52.124;5.196;2022-11-09T15:48:35;100830.00;;;19.10
20736;BMP180;10528;52.124;5.196;2022-11-09T15:51:21;100831.00;;;19.10
20736;BMP180;10528;52.124;5.196;2022-11-09T15:54:07;100846.00;;;19.10
20736;BMP180;10528;52.124;5.196;2022-11-09T15:56:52;100847.00;;;19.00
20736;BMP180;10528;52.124;5.196;2022-11-09T15:59:38;100845.00;;;19.00
20736;BMP180;10528;52.124;5.196;2022-11-09T16:02:23;100851.00;;;19.00
20736;BMP180;10528;52.124;5.196;2022-11-09T16:05:08;100853.00;;;19.00
20736;BMP180;10528;52.124;5.196;2022-11-09T16:07:54;100861.00;;;19.00
20736;BMP180;10528;52.124;5.196;2022-11-09T16:10:41;100863.00;;;19.00
20736;BMP180;10528;52.124;5.196;2022-11-09T16:13:27;100873.00;;;19.00
20736;BMP180;10528;52.124;5.196;2022-11-09T16:16:14;100867.00;;;19.00
20736;BMP180;10528;52.124;5.196;2022-11-09T16:19:00;100879.00;;;19.00
20736;BMP180;10528;52.124;5.196;2022-11-09T16:21:46;100884.00;;;19.00
20736;BMP180;10528;52.124;5.196;2022-11-09T16:24:31;100877.00;;;19.00
20736;BMP180;10528;52.124;5.196;2022-11-09T16:27:18;100891.00;;;19.00